Edgerton, Canada
Current Conditions -  °F | °C
As of 6:47 PM on Saturday 20 Dec 2014 (Local Time) from CYLL Reporting Station
Moderate Fog Moderate Fog  
Wind Chill: 10°   Ceiling: 200
Heat Index: 19°   Visibility: 0.5mi
Dew Point: 18°   Wind: 7mph
Humidity: 93%   Direction: 110°ESE
Pressure: 29.57"   Gusts: NA
Location:  52.75°N, 110.45°W
Report Text: CYLL 210147Z 11006KT 1/2SM FZFG VV002 M07/M08 A2957 RMK FG8 SLP057
Loading
Personal Weather Stations






























Interactive Weather Map New forecast layout! Learn more

10-Day Weather Forecast

Advertisements
Track Severe Weather on mobile